Time;durP1;ratioP1;P1;durP2;ratioP2;P2;SDS_P1;SDS_P2;PMS_P1;PMS_P2;Temp;Humidity;BMP_temperature;BMP_pressure;BME280_temperature;BME280_humidity;BME280_pressure;Samples;Min_cycle;Max_cycle;Signal;HPM_P1;HPM_P2
2022/07/18 00:01:41;;;;;;;12.80;3.30;;;;;;;12.56;52.53;99959.41;106109;1274;22589;-88
2022/07/18 00:04:23;;;;;;;13.00;3.20;;;;;;;12.44;52.62;99959.84;105823;1274;24278;-86
2022/07/18 00:07:28;;;;;;;13.30;3.40;;;;;;;12.30;52.52;99957.00;106143;1273;25252;-85
2022/07/18 00:10:26;;;;;;;12.90;2.90;;;;;;;12.24;52.78;99949.00;106070;1275;24422;-83
2022/07/18 00:13:28;;;;;;;;;;;;;;;;;;;;;
2022/07/18 00:16:13;;;;;;;11.60;3.60;;;;;;;12.32;53.00;99952.27;106164;1274;22829;-84
2022/07/18 00:19:02;;;;;;;10.80;3.00;;;;;;;12.34;52.99;99952.14;106189;1275;24283;-86
2022/07/18 00:21:42;;;;;;;11.60;2.70;;;;;;;12.36;52.93;99951.42;106066;1275;22564;-85
2022/07/18 00:24:23;;;;;;;10.00;2.70;;;;;;;12.41;53.10;99949.69;106154;1274;23378;-85
2022/07/18 00:27:04;;;;;;;8.00;2.20;;;;;;;12.50;53.23;99951.02;106151;1275;22555;-85
2022/07/18 00:29:39;;;;;;;11.70;2.30;;;;;;;12.57;53.17;99955.02;106100;1275;22631;-87
2022/07/18 00:32:08;;;;;;;10.10;2.70;;;;;;;12.62;53.15;99956.30;106122;1275;22563;-85
2022/07/18 00:34:37;;;;;;;9.50;2.90;;;;;;;12.66;53.24;99956.98;106402;1274;22550;-87
2022/07/18 00:37:11;;;;;;;13.50;3.00;;;;;;;12.66;53.27;99958.21;106058;1274;24407;-86
2022/07/18 00:39:43;;;;;;;12.30;3.30;;;;;;;12.61;53.31;99959.60;106216;1274;22637;-84
2022/07/18 00:42:15;;;;;;;9.70;3.00;;;;;;;12.59;53.42;99960.98;106063;1275;25325;-85
2022/07/18 00:44:47;;;;;;;8.30;2.70;;;;;;;12.56;53.44;99960.52;106125;1275;24285;-85
2022/07/18 00:47:19;;;;;;;7.70;2.50;;;;;;;12.38;53.35;99960.04;106054;1277;25213;-85
2022/07/18 00:49:53;;;;;;;10.10;2.60;;;;;;;12.30;53.71;99963.08;106041;1276;23030;-84
2022/07/18 00:52:28;;;;;;;10.70;2.40;;;;;;;12.22;53.68;99962.38;106200;1275;22560;-88
2022/07/18 00:55:07;;;;;;;9.30;2.70;;;;;;;12.10;53.78;99962.27;106196;1274;23906;-84
2022/07/18 00:57:42;;;;;;;13.70;3.00;;;;;;;12.01;53.92;99960.88;106333;1274;22543;-83
2022/07/18 01:03:44;;;;;;;9.30;2.80;;;;;;;12.03;54.26;99958.97;106230;1275;24277;-86
2022/07/18 01:06:26;;;;;;;7.20;2.40;;;;;;;12.06;54.35;99956.75;106397;1274;22559;-89
2022/07/18 01:09:01;;;;;;;11.20;2.50;;;;;;;12.09;54.23;99956.43;106234;1274;22576;-84
2022/07/18 01:11:42;;;;;;;10.70;2.60;;;;;;;12.03;54.24;99957.70;106074;1277;22660;-85
2022/07/18 01:14:17;;;;;;;9.70;2.40;;;;;;;11.98;54.48;99954.81;106078;1274;24228;-88
2022/07/18 01:16:54;;;;;;;11.80;2.40;;;;;;;11.93;54.39;99953.71;106127;1274;22743;-83
2022/07/18 01:19:35;;;;;;;12.80;3.20;;;;;;;11.93;54.57;99951.41;106143;1275;25386;-85
2022/07/18 01:22:07;;;;;;;9.90;3.00;;;;;;;11.85;54.33;99949.86;106074;1275;22694;-84
2022/07/18 01:24:41;;;;;;;8.60;2.60;;;;;;;11.85;54.56;99949.56;106047;1275;24267;-86
2022/07/18 01:27:33;;;;;;;9.20;2.30;;;;;;;11.90;54.78;99947.79;106116;1274;22560;-88
2022/07/18 01:30:23;;;;;;;7.90;2.30;;;;;;;11.98;54.92;99945.36;106077;1275;24231;-85
2022/07/18 01:33:03;;;;;;;6.80;2.10;;;;;;;12.02;55.00;99945.61;106424;1274;25239;-87
2022/07/18 01:35:39;;;;;;;9.10;2.10;;;;;;;12.04;55.06;99947.30;106143;1274;24249;-84
2022/07/18 01:38:17;;;;;;;9.30;2.90;;;;;;;11.99;54.82;99948.80;106101;1277;22808;-85
2022/07/18 01:45:17;;;;;;;11.70;3.40;;;;;;;11.70;55.36;99954.75;105808;1281;24797;-88
2022/07/18 01:48:00;;;;;;;12.10;3.30;;;;;;;11.68;55.40;99954.00;105775;1281;22815;-86
2022/07/18 01:50:31;;;;;;;11.50;3.70;;;;;;;11.68;55.54;99954.15;105790;1280;22820;-86
2022/07/18 01:53:34;;;;;;;;;;;;;;;;;;;;;
2022/07/18 01:56:17;;;;;;;10.50;3.00;;;;;;;11.64;55.89;99942.08;105773;1281;22551;-89
2022/07/18 01:58:59;;;;;;;;;;;;;;;;;;;;;
2022/07/18 02:01:49;;;;;;;9.60;2.80;;;;;;;11.81;55.76;99935.48;105624;1281;22553;-82
2022/07/18 02:08:27;;;;;;;;;;;;;;;;;;;;;
2022/07/18 02:11:18;;;;;;;;;;;;;;;;;;;;;
2022/07/18 02:14:43;;;;;;;8.80;3.10;;;;;;;11.79;55.89;99944.71;104747;1290;23049;-85
2022/07/18 02:17:38;;;;;;;9.00;2.60;;;;;;;11.62;56.10;99947.72;104640;1290;25400;-84
2022/07/18 02:21:07;;;;;;;11.90;2.60;;;;;;;11.57;56.16;99947.71;104746;1284;25363;-85
2022/07/18 02:24:16;;;;;;;10.80;2.10;;;;;;;11.62;56.22;99948.48;105068;1287;22617;-84
2022/07/18 02:27:25;;;;;;;9.20;2.20;;;;;;;11.73;56.39;99947.23;105039;1287;22560;-87
2022/07/18 02:30:08;;;;;;;8.70;2.40;;;;;;;11.88;56.52;99947.95;105171;1286;22812;-85
2022/07/18 02:32:55;;;;;;;7.50;2.20;;;;;;;11.99;56.36;99950.27;104860;1288;24684;-87
2022/07/18 02:35:44;;;;;;;10.10;2.30;;;;;;;12.02;56.53;99948.28;105093;1287;22603;-89
2022/07/18 02:38:46;;;;;;;8.60;2.70;;;;;;;12.02;56.48;99950.40;105169;1287;25380;-84
2022/07/18 02:41:39;;;;;;;12.60;3.00;;;;;;;12.04;56.69;99950.50;104984;1284;24374;-86
2022/07/18 02:44:22;;;;;;;12.80;2.90;;;;;;;12.05;56.67;99949.88;105347;1284;22666;-86
2022/07/18 02:47:17;;;;;;;;;;;;;;;;;;;;;
2022/07/18 02:50:25;;;;;;;;;;;;;;;;;;;;;
2022/07/18 02:54:40;;;;;;;7.90;2.40;;;;;;;12.05;56.89;99947.22;105841;1278;25249;-84
2022/07/18 02:57:52;;;;;;;8.50;2.30;;;;;;;12.14;57.11;99945.02;105795;1281;25502;-84
2022/07/18 03:00:59;;;;;;;8.10;2.30;;;;;;;12.22;57.03;99943.63;105248;1287;22575;-87
2022/07/18 03:04:00;;;;;;;9.50;2.60;;;;;;;12.26;57.11;99942.46;105398;1284;24284;-88
2022/07/18 03:07:33;;;;;;;7.80;2.30;;;;;;;12.27;57.16;99937.58;105165;1284;23985;-86
2022/07/18 03:11:34;;;;;;;9.30;2.50;;;;;;;12.25;57.13;99941.08;104925;1289;22582;-88
2022/07/18 03:14:19;;;;;;;7.10;2.10;;;;;;;12.23;57.36;99939.64;104824;1289;22601;-85
2022/07/18 03:17:18;;;;;;;;;;;;;;;;;;;;;
2022/07/18 03:20:43;;;;;;;7.40;2.00;;;;;;;12.14;57.53;99939.45;104719;1289;24002;-85
2022/07/18 03:32:43;;;;;;;7.80;2.10;;;;;;;11.89;57.57;99943.20;104056;1297;26655;-85
2022/07/18 03:40:18;;;;;;;10.90;2.40;;;;;;;11.75;58.05;99949.27;105524;1282;22781;-86
2022/07/18 04:04:35;;;;;;;;;;;;;;;;;;;;;
2022/07/18 04:08:22;;;;;;;9.40;2.90;;;;;;;12.80;58.55;99936.39;105173;1287;22582;-87
2022/07/18 04:10:57;;;;;;;8.00;2.50;;;;;;;12.87;58.36;99934.29;105106;1286;22541;-89
2022/07/18 04:13:58;;;;;;;10.30;2.40;;;;;;;12.94;58.41;99934.71;105055;1287;25542;-83
2022/07/18 04:21:34;;;;;;;6.50;1.60;;;;;;;13.21;58.47;99938.55;105803;1273;22755;-85
2022/07/18 04:24:11;;;;;;;7.60;1.70;;;;;;;13.42;58.53;99936.65;105937;1276;22644;-83
2022/07/18 04:27:14;;;;;;;5.80;1.70;;;;;;;13.56;58.26;99940.47;106153;1275;25300;-84
2022/07/18 04:30:04;;;;;;;7.90;1.90;;;;;;;13.72;58.48;99935.41;106341;1274;25509;-88
2022/07/18 04:32:38;;;;;;;8.50;1.90;;;;;;;13.87;58.51;99932.02;106131;1274;22540;-85
2022/07/18 04:35:17;;;;;;;9.90;2.30;;;;;;;14.02;58.40;99935.38;106071;1275;22581;-85
2022/07/18 04:38:05;;;;;;;16.70;3.00;;;;;;;14.17;58.34;99938.78;106110;1274;22757;-86
2022/07/18 04:40:49;;;;;;;17.40;3.20;;;;;;;14.33;58.07;99935.59;106339;1274;25284;-85
2022/07/18 04:43:25;;;;;;;13.40;3.20;;;;;;;14.48;57.98;99936.36;106164;1274;24239;-86
2022/07/18 04:46:02;;;;;;;12.40;2.90;;;;;;;14.59;58.17;99934.06;106174;1274;24391;-85
2022/07/18 04:48:38;;;;;;;14.00;3.50;;;;;;;14.78;58.46;99934.39;106199;1274;25425;-87
2022/07/18 04:51:41;;;;;;;10.20;2.20;;;;;;;15.07;58.44;99930.98;106094;1273;24243;-89
2022/07/18 04:54:31;;;;;;;9.30;2.20;;;;;;;15.44;58.40;99925.05;106184;1274;22639;-85
2022/07/18 04:57:19;;;;;;;13.10;2.30;;;;;;;15.80;58.40;99923.25;106195;1274;22616;-85
2022/07/18 04:59:55;;;;;;;12.70;2.30;;;;;;;16.18;58.28;99922.94;106202;1274;24237;-85
2022/07/18 05:02:35;;;;;;;9.80;2.20;;;;;;;16.56;58.12;99922.48;106117;1274;24861;-87
2022/07/18 05:05:09;;;;;;;17.00;2.60;;;;;;;16.90;58.04;99921.06;106098;1273;22559;-85
2022/07/18 05:07:48;;;;;;;15.80;2.90;;;;;;;17.21;57.83;99916.05;106169;1274;24297;-86
2022/07/18 05:10:28;;;;;;;14.20;2.20;;;;;;;17.54;57.53;99920.79;106315;1274;22566;-84
2022/07/18 05:13:01;;;;;;;9.90;2.20;;;;;;;17.91;57.43;99918.91;106241;1273;22538;-86
2022/07/18 05:15:37;;;;;;;13.80;2.00;;;;;;;18.26;57.22;99922.50;106252;1274;22538;-85
2022/07/18 05:18:17;;;;;;;12.30;2.10;;;;;;;18.62;57.15;99917.90;106159;1274;25378;-84
2022/07/18 05:20:50;;;;;;;10.30;1.70;;;;;;;18.95;56.82;99915.48;106114;1274;22566;-85
2022/07/18 05:23:27;;;;;;;6.80;1.30;;;;;;;19.22;56.50;99910.88;106033;1274;24205;-85
2022/07/18 05:25:59;;;;;;;9.90;1.50;;;;;;;19.43;56.03;99915.66;105997;1273;22961;-87
2022/07/18 05:28:31;;;;;;;8.40;1.60;;;;;;;19.59;55.89;99908.84;106083;1274;25368;-86
2022/07/18 05:31:03;;;;;;;10.80;1.70;;;;;;;19.80;55.56;99916.60;105979;1274;24290;-85
2022/07/18 05:33:42;;;;;;;8.70;1.60;;;;;;;20.07;55.82;99910.11;106113;1274;24370;-87
2022/07/18 05:36:24;;;;;;;9.10;1.60;;;;;;;20.31;55.46;99907.92;106253;1274;25428;-85
2022/07/18 05:38:58;;;;;;;7.20;1.40;;;;;;;20.53;55.51;99908.48;106140;1273;24395;-87
2022/07/18 05:41:38;;;;;;;13.00;1.70;;;;;;;20.74;55.27;99906.73;106176;1274;22571;-86
2022/07/18 05:44:19;;;;;;;13.60;2.00;;;;;;;20.91;55.28;99903.27;106389;1274;25238;-86
2022/07/18 05:47:01;;;;;;;13.70;1.50;;;;;;;21.04;55.34;99907.99;106168;1274;25362;-86
2022/07/18 05:49:36;;;;;;;9.40;1.50;;;;;;;21.15;55.05;99906.20;106035;1274;25252;-88
2022/07/18 05:52:11;;;;;;;14.90;1.70;;;;;;;21.24;55.11;99904.38;106372;1274;22623;-87
2022/07/18 05:54:40;;;;;;;14.90;1.60;;;;;;;21.31;55.07;99903.68;106410;1274;22849;-88
2022/07/18 05:57:09;;;;;;;13.40;1.40;;;;;;;21.33;54.55;99905.98;106168;1274;22656;-85
2022/07/18 06:00:02;;;;;;;13.60;1.80;;;;;;;21.31;54.43;99905.05;106230;1274;22572;-87
2022/07/18 06:02:41;;;;;;;12.80;1.90;;;;;;;21.33;54.16;99904.52;106118;1274;25316;-85
2022/07/18 06:05:40;;;;;;;12.90;1.90;;;;;;;21.33;54.02;99903.23;106355;1274;22732;-87
2022/07/18 06:08:18;;;;;;;10.30;1.50;;;;;;;21.31;54.05;99899.46;106109;1274;22765;-86
2022/07/18 06:10:49;;;;;;;12.50;1.60;;;;;;;21.32;54.19;99897.19;106290;1274;24408;-84
2022/07/18 06:13:42;;;;;;;12.10;1.50;;;;;;;21.37;54.02;99898.46;105931;1274;22548;-88
2022/07/18 06:16:43;;;;;;;6.70;1.00;;;;;;;21.42;53.72;99897.61;106087;1274;24430;-89
2022/07/18 06:19:18;;;;;;;7.20;1.10;;;;;;;21.41;53.40;99899.37;106285;1273;25553;-84
2022/07/18 06:21:56;;;;;;;5.70;1.00;;;;;;;21.38;53.19;99899.46;106171;1274;22616;-86
2022/07/18 06:24:29;;;;;;;5.50;1.00;;;;;;;21.37;53.11;99902.35;106085;1274;25349;-87
2022/07/18 06:27:04;;;;;;;6.60;1.10;;;;;;;21.39;53.00;99906.40;106133;1274;22710;-87
2022/07/18 06:29:43;;;;;;;5.20;1.10;;;;;;;21.39;52.92;99905.71;106385;1274;22553;-91
2022/07/18 06:32:25;;;;;;;9.70;1.50;;;;;;;21.43;52.94;99902.74;106309;1273;22547;-87
2022/07/18 06:35:02;;;;;;;7.00;1.00;;;;;;;21.51;52.81;99905.56;106266;1273;25353;-85
2022/07/18 06:37:43;;;;;;;6.40;1.20;;;;;;;21.60;52.64;99905.31;106138;1274;25321;-85
2022/07/18 06:40:25;;;;;;;4.40;0.90;;;;;;;21.67;52.24;99905.11;106287;1273;22537;-85
2022/07/18 06:43:02;;;;;;;7.10;1.30;;;;;;;21.71;52.21;99907.75;106019;1274;25337;-87
2022/07/18 06:45:59;;;;;;;;;;;;;;;;;;;;;
2022/07/18 06:48:48;;;;;;;11.60;1.50;;;;;;;21.99;52.12;99902.99;106030;1274;22720;-86
2022/07/18 06:51:24;;;;;;;8.10;1.30;;;;;;;22.10;51.92;99902.39;106118;1274;23834;-87
2022/07/18 06:54:08;;;;;;;7.10;1.50;;;;;;;22.22;52.04;99900.22;106092;1274;22697;-88
2022/07/18 06:57:09;;;;;;;6.50;1.20;;;;;;;22.33;51.80;99897.57;106126;1274;24302;-86
2022/07/18 06:59:46;;;;;;;11.00;1.60;;;;;;;22.47;51.80;99892.81;106272;1273;24301;-86
2022/07/18 07:02:35;;;;;;;12.40;1.10;;;;;;;22.61;51.76;99889.92;106128;1274;22534;-87
2022/07/18 07:05:23;;;;;;;11.00;1.30;;;;;;;22.77;51.37;99890.89;106278;1273;22626;-88
2022/07/18 07:08:10;;;;;;;10.00;1.40;;;;;;;22.95;51.62;99888.96;106116;1274;22679;-90
2022/07/18 07:10:49;;;;;;;7.90;1.00;;;;;;;23.12;51.43;99890.77;106077;1274;22537;-85
2022/07/18 07:13:35;;;;;;;5.80;1.00;;;;;;;23.31;51.26;99879.67;106012;1274;23969;-86
2022/07/18 07:16:15;;;;;;;6.30;1.20;;;;;;;23.42;50.50;99880.20;106107;1274;25250;-85
2022/07/18 07:18:47;;;;;;;12.40;1.30;;;;;;;23.46;50.49;99878.88;106173;1273;24736;-87
2022/07/18 07:21:33;;;;;;;9.60;1.30;;;;;;;23.56;50.14;99878.30;105933;1274;25365;-87
2022/07/18 07:24:17;;;;;;;6.30;1.00;;;;;;;23.65;50.05;99879.10;106376;1274;24262;-86
2022/07/18 07:26:46;;;;;;;7.00;1.00;;;;;;;23.75;49.73;99878.86;106130;1274;22714;-89
2022/07/18 07:29:47;;;;;;;;;;;;;;;;;;;;;
2022/07/18 07:32:44;;;;;;;9.30;1.10;;;;;;;23.74;49.72;99874.64;106212;1273;24190;-87
2022/07/18 07:35:32;;;;;;;9.40;1.10;;;;;;;23.95;49.95;99879.27;106396;1274;25401;-86
2022/07/18 07:38:18;;;;;;;;;;;;;;;;;;;;;
2022/07/18 07:41:58;;;;;;;7.40;1.20;;;;;;;24.23;48.62;99873.11;105790;1278;22570;-87
2022/07/18 07:45:02;;;;;;;5.70;0.90;;;;;;;24.27;48.98;99869.81;105903;1277;24211;-89
2022/07/18 07:47:49;;;;;;;8.40;0.90;;;;;;;24.26;47.96;99869.03;105792;1277;24218;-88
2022/07/18 07:51:09;;;;;;;;;;;;;;;;;;;;;
2022/07/18 07:54:10;;;;;;;;;;;;;;;;;;;;;
2022/07/18 07:57:12;;;;;;;7.90;1.10;;;;;;;24.26;48.38;99871.02;105681;1282;23157;-85
2022/07/18 08:00:11;;;;;;;6.00;1.20;;;;;;;24.39;47.56;99876.05;105621;1282;22554;-91
2022/07/18 08:03:10;;;;;;;;;;;;;;;;;;;;;
2022/07/18 08:06:07;;;;;;;7.70;1.30;;;;;;;24.62;46.75;99874.23;105200;1282;25254;-86
2022/07/18 08:08:48;;;;;;;5.90;1.00;;;;;;;24.62;47.03;99873.01;105453;1282;22596;-88
2022/07/18 08:11:41;;;;;;;5.60;1.20;;;;;;;24.57;46.69;99877.45;105536;1280;22553;-84
2022/07/18 08:14:18;;;;;;;6.70;1.00;;;;;;;24.63;46.97;99872.45;105626;1278;24229;-91
2022/07/18 08:17:14;;;;;;;4.90;0.80;;;;;;;24.74;46.63;99872.38;105651;1281;22551;-85
2022/07/18 08:20:23;;;;;;;6.70;1.10;;;;;;;24.92;46.95;99864.86;105879;1279;24368;-85
2022/07/18 08:23:01;;;;;;;8.80;1.10;;;;;;;25.15;46.97;99864.11;106233;1274;25235;-91
2022/07/18 08:25:47;;;;;;;4.50;1.00;;;;;;;25.36;46.93;99865.88;106153;1274;24278;-85
2022/07/18 08:28:16;;;;;;;5.90;1.00;;;;;;;25.57;46.75;99864.95;106132;1274;24204;-87
2022/07/18 08:30:59;;;;;;;4.50;0.90;;;;;;;25.70;46.48;99864.13;106312;1274;22579;-85
2022/07/18 08:33:47;;;;;;;6.90;0.90;;;;;;;25.73;45.97;99863.25;106064;1274;22817;-86
2022/07/18 08:36:54;;;;;;;7.70;0.90;;;;;;;25.75;46.07;99856.77;106173;1274;24392;-86
2022/07/18 08:40:11;;;;;;;7.70;1.10;;;;;;;25.95;46.36;99857.34;106176;1274;22588;-84
2022/07/18 08:42:37;;;;;;;7.20;1.20;;;;;;;26.14;45.90;99855.90;106317;1274;25312;-87
2022/07/18 08:45:09;;;;;;;9.10;1.10;;;;;;;26.37;45.81;99855.80;106326;1274;22560;-89
2022/07/18 08:47:54;;;;;;;10.90;1.30;;;;;;;26.39;45.48;99859.35;106115;1274;22544;-87
2022/07/18 08:50:26;;;;;;;5.40;1.00;;;;;;;26.45;45.01;99862.36;106175;1274;24078;-89
2022/07/18 08:52:53;;;;;;;5.40;1.20;;;;;;;26.29;44.32;99862.40;106178;1273;24247;-85
2022/07/18 08:55:23;;;;;;;5.50;1.10;;;;;;;26.17;44.70;99860.15;106422;1274;22560;-86
2022/07/18 08:57:57;;;;;;;7.10;1.10;;;;;;;26.17;44.99;99859.29;106082;1274;22570;-88
2022/07/18 09:00:26;;;;;;;5.30;1.00;;;;;;;26.38;45.19;99854.73;106038;1274;23132;-86
2022/07/18 09:03:01;;;;;;;4.70;0.90;;;;;;;26.60;45.07;99855.40;106172;1274;24296;-87
2022/07/18 09:05:31;;;;;;;5.00;1.00;;;;;;;26.69;43.67;99856.38;106156;1274;23304;-87
2022/07/18 09:08:17;;;;;;;3.30;0.80;;;;;;;26.39;43.41;99863.54;106443;1274;24363;-84
2022/07/18 09:10:53;;;;;;;6.00;1.00;;;;;;;26.23;43.75;99858.63;106098;1273;22541;-87
2022/07/18 09:13:25;;;;;;;6.20;1.00;;;;;;;26.23;44.08;99857.10;106243;1273;22729;-88
2022/07/18 09:16:00;;;;;;;4.00;0.70;;;;;;;26.27;43.77;99857.95;106162;1274;25682;-85
2022/07/18 09:18:40;;;;;;;4.80;1.10;;;;;;;26.25;43.75;99854.42;106294;1273;25525;-86
2022/07/18 09:21:15;;;;;;;7.20;1.30;;;;;;;26.33;43.60;99857.25;106340;1274;24415;-87
2022/07/18 09:23:45;;;;;;;5.20;0.80;;;;;;;26.52;43.55;99850.67;106302;1274;25610;-87
2022/07/18 09:26:39;;;;;;;5.90;1.10;;;;;;;26.65;43.50;99855.37;106181;1274;22563;-87
2022/07/18 09:29:05;;;;;;;5.00;1.10;;;;;;;26.88;43.46;99851.16;106358;1274;22581;-90
2022/07/18 09:31:41;;;;;;;5.40;1.10;;;;;;;27.07;43.76;99851.86;106108;1274;24790;-86
2022/07/18 09:34:11;;;;;;;4.80;1.30;;;;;;;27.34;43.84;99843.19;106468;1274;22547;-85
2022/07/18 09:36:58;;;;;;;8.10;0.90;;;;;;;27.46;43.14;99842.34;106425;1274;24371;-87
2022/07/18 09:39:29;;;;;;;6.40;0.90;;;;;;;27.45;43.13;99846.14;106113;1274;22573;-87
2022/07/18 09:42:21;;;;;;;5.30;0.90;;;;;;;27.48;42.68;99845.15;106202;1274;25251;-85
2022/07/18 09:45:04;;;;;;;5.70;0.90;;;;;;;27.54;43.02;99847.20;106282;1274;22716;-86
2022/07/18 09:47:49;;;;;;;4.60;0.80;;;;;;;27.68;42.76;99841.31;106097;1274;22534;-85
2022/07/18 09:50:26;;;;;;;4.10;1.00;;;;;;;27.78;42.63;99838.38;106123;1274;23259;-86
2022/07/18 09:53:24;;;;;;;4.90;0.60;;;;;;;27.72;41.61;99839.45;106195;1274;22611;-85
2022/07/18 09:56:06;;;;;;;5.90;0.80;;;;;;;27.40;40.65;99835.71;106101;1274;22568;-90
2022/07/18 09:58:37;;;;;;;4.30;0.90;;;;;;;27.01;41.45;99834.16;105985;1274;22550;-87
2022/07/18 10:01:13;;;;;;;5.40;0.80;;;;;;;27.19;42.68;99829.33;106068;1273;24243;-85
2022/07/18 10:03:49;;;;;;;5.60;1.00;;;;;;;27.50;41.78;99830.72;106426;1273;24255;-85
2022/07/18 10:06:26;;;;;;;4.60;0.80;;;;;;;27.61;41.85;99825.52;106109;1274;24227;-85
2022/07/18 10:09:00;;;;;;;4.70;0.80;;;;;;;27.78;41.68;99825.41;106127;1274;22709;-85
2022/07/18 10:11:30;;;;;;;4.70;1.10;;;;;;;27.66;40.81;99823.82;106247;1274;22576;-85
2022/07/18 10:13:59;;;;;;;5.40;0.90;;;;;;;27.55;41.32;99824.84;106113;1274;22829;-85
2022/07/18 10:17:21;;;;;;;7.70;1.90;;;;;;;27.69;40.81;99819.35;105687;1279;22579;-89
2022/07/18 10:20:09;;;;;;;4.90;0.80;;;;;;;27.68;40.17;99818.27;105800;1279;25675;-89
2022/07/18 10:23:02;;;;;;;3.40;0.80;;;;;;;27.38;39.73;99814.86;105791;1280;22905;-86
2022/07/18 10:25:31;;;;;;;3.50;0.80;;;;;;;27.27;40.44;99817.09;105717;1280;22553;-86
2022/07/18 10:28:14;;;;;;;7.10;0.80;;;;;;;27.33;40.17;99816.09;105796;1279;25371;-85
2022/07/18 10:31:26;;;;;;;5.90;0.80;;;;;;;27.29;40.13;99817.21;105807;1279;23155;-87
2022/07/18 10:34:38;;;;;;;5.20;1.10;;;;;;;27.18;39.65;99816.92;105605;1279;22551;-87
2022/07/18 10:37:11;;;;;;;5.20;0.90;;;;;;;27.21;40.29;99814.15;105797;1279;22659;-87
2022/07/18 10:39:53;;;;;;;4.20;0.80;;;;;;;27.41;39.96;99821.21;105780;1279;25953;-86
2022/07/18 10:42:43;;;;;;;4.90;0.80;;;;;;;27.48;39.19;99820.12;105807;1279;22685;-87
2022/07/18 10:45:46;;;;;;;6.30;0.80;;;;;;;27.53;39.61;99815.29;105836;1279;22601;-85
2022/07/18 10:48:40;;;;;;;7.50;0.80;;;;;;;27.81;39.68;99812.39;105775;1279;25389;-86
2022/07/18 10:51:22;;;;;;;;;;;;;;;;;;;;;
2022/07/18 10:54:06;;;;;;;3.70;0.70;;;;;;;27.95;38.99;99812.50;105738;1274;22547;-87
2022/07/18 10:56:47;;;;;;;5.60;0.80;;;;;;;27.83;38.54;99812.15;106376;1274;22550;-88
2022/07/18 10:59:22;;;;;;;6.50;1.20;;;;;;;27.79;39.23;99800.60;106167;1274;25559;-87
2022/07/18 11:02:01;;;;;;;6.50;1.40;;;;;;;28.06;39.73;99796.95;106060;1274;25515;-87
2022/07/18 11:04:42;;;;;;;7.70;1.80;;;;;;;28.12;39.08;99792.97;106103;1274;24253;-85
2022/07/18 11:07:16;;;;;;;4.40;0.90;;;;;;;28.28;39.32;99798.22;106434;1274;22554;-89
2022/07/18 11:09:51;;;;;;;2.50;0.60;;;;;;;28.50;39.17;99792.04;106081;1274;22621;-88
2022/07/18 11:12:42;;;;;;;9.70;0.80;;;;;;;28.66;39.17;99789.56;106142;1274;22635;-86
2022/07/18 11:15:13;;;;;;;5.90;0.70;;;;;;;28.72;39.07;99785.04;106065;1274;22544;-86
2022/07/18 11:18:41;;;;;;;6.10;0.80;;;;;;;28.66;38.30;99787.37;106360;1273;23006;-89
2022/07/18 11:21:36;;;;;;;4.50;0.90;;;;;;;28.77;38.73;99786.52;106284;1274;24226;-86
2022/07/18 11:24:24;;;;;;;4.90;0.70;;;;;;;28.83;38.07;99783.73;106118;1274;22582;-89
2022/07/18 11:27:11;;;;;;;4.60;0.80;;;;;;;28.69;38.26;99773.45;106181;1274;22560;-86
2022/07/18 11:30:02;;;;;;;3.10;0.70;;;;;;;28.67;38.02;99774.13;106071;1273;24478;-87
2022/07/18 11:32:51;;;;;;;4.80;0.80;;;;;;;28.58;38.17;99771.70;105881;1275;22489;-87
2022/07/18 11:36:06;;;;;;;6.50;0.70;;;;;;;28.76;38.46;99765.77;106097;1274;25476;-85
2022/07/18 11:39:27;;;;;;;;;;;;;;;;;;;;;
2022/07/18 11:42:49;;;;;;;6.20;1.00;;;;;;;28.63;37.59;99759.70;105598;1280;25498;-87
2022/07/18 11:46:39;;;;;;;;;;;;;;;;;;;;;
2022/07/18 11:53:28;;;;;;;3.90;0.70;;;;;;;29.17;37.91;99746.00;104322;1294;25274;-89
2022/07/18 11:56:24;;;;;;;2.20;0.70;;;;;;;29.40;37.74;99741.73;104079;1294;22649;-85
2022/07/18 11:59:12;;;;;;;3.90;0.90;;;;;;;29.37;37.20;99741.71;104449;1293;24707;-93
2022/07/18 12:01:44;;;;;;;7.20;1.00;;;;;;;29.19;36.84;99737.50;103986;1294;24689;-86
2022/07/18 12:05:38;;;;;;;4.30;0.90;;;;;;;29.06;36.83;99735.31;104222;1294;22608;-89
2022/07/18 12:09:17;;;;;;;2.60;0.70;;;;;;;28.99;36.72;99740.33;104238;1294;22796;-87
2022/07/18 12:12:18;;;;;;;6.30;0.80;;;;;;;28.92;36.98;99740.52;104373;1294;22788;-89
2022/07/18 12:15:22;;;;;;;4.80;0.90;;;;;;;28.77;36.55;99735.69;104348;1294;25391;-86
2022/07/18 12:18:11;;;;;;;5.80;0.80;;;;;;;28.71;36.66;99730.71;104299;1294;22582;-86
2022/07/18 12:21:22;;;;;;;3.30;0.70;;;;;;;28.75;36.52;99729.73;105603;1279;24310;-89
2022/07/18 12:25:20;;;;;;;6.10;1.10;;;;;;;28.71;35.84;99729.30;105821;1275;22735;-85
2022/07/18 12:27:35;;;;;;;4.10;1.00;;;;;;;28.53;36.16;99730.70;106167;1274;25261;-86
2022/07/18 12:30:13;;;;;;;6.60;0.90;;;;;;;28.63;36.77;99724.32;106410;1274;22705;-88
2022/07/18 12:32:51;;;;;;;5.80;1.00;;;;;;;28.87;36.78;99723.89;106399;1274;24303;-88
2022/07/18 12:35:22;;;;;;;3.40;0.80;;;;;;;28.92;36.38;99717.35;106098;1274;22573;-86
2022/07/18 12:38:08;;;;;;;4.30;0.80;;;;;;;29.02;36.74;99712.10;106400;1274;22727;-87
2022/07/18 12:40:37;;;;;;;6.80;0.80;;;;;;;29.23;36.71;99706.65;106395;1274;22601;-89
2022/07/18 12:43:15;;;;;;;3.50;0.80;;;;;;;29.23;36.30;99706.63;106364;1274;22542;-86
2022/07/18 12:45:46;;;;;;;8.50;1.10;;;;;;;29.20;36.46;99699.96;106209;1274;25316;-88
2022/07/18 12:48:13;;;;;;;4.30;0.90;;;;;;;29.08;35.44;99696.52;106146;1274;22621;-86
2022/07/18 12:50:41;;;;;;;4.70;0.90;;;;;;;28.86;35.89;99703.08;106192;1274;22672;-84
2022/07/18 12:53:08;;;;;;;3.60;0.80;;;;;;;28.76;34.90;99699.45;106285;1274;25254;-85
2022/07/18 12:55:40;;;;;;;5.40;1.10;;;;;;;28.61;35.28;99696.85;106131;1274;23187;-85
2022/07/18 12:58:06;;;;;;;5.00;0.80;;;;;;;28.59;35.36;99701.58;106178;1274;24402;-88
2022/07/18 13:00:38;;;;;;;4.90;1.00;;;;;;;28.66;35.52;99701.61;106158;1274;25445;-84
2022/07/18 13:03:10;;;;;;;5.20;0.90;;;;;;;28.80;35.40;99701.81;106113;1274;25355;-86
2022/07/18 13:05:36;;;;;;;4.40;0.70;;;;;;;28.79;35.44;99706.09;106125;1274;25368;-85
2022/07/18 13:08:03;;;;;;;6.30;1.10;;;;;;;28.83;35.02;99703.42;106057;1274;25481;-85
2022/07/18 13:10:34;;;;;;;4.10;1.00;;;;;;;28.76;34.69;99699.67;106314;1274;22568;-84
2022/07/18 13:13:06;;;;;;;4.60;0.90;;;;;;;28.70;35.32;99701.45;106129;1274;24245;-86
2022/07/18 13:15:36;;;;;;;9.10;1.30;;;;;;;28.80;35.33;99700.17;106350;1273;24335;-87
2022/07/18 13:18:03;;;;;;;6.20;1.20;;;;;;;28.96;35.62;99696.67;106185;1274;22653;-91
2022/07/18 13:20:33;;;;;;;3.80;0.90;;;;;;;29.09;35.33;99688.43;106189;1273;26833;-85
2022/07/18 13:23:10;;;;;;;9.10;1.30;;;;;;;29.10;35.27;99691.10;106279;1274;24238;-87
2022/07/18 13:25:42;;;;;;;4.70;0.80;;;;;;;29.16;35.19;99688.92;106187;1274;22717;-86
2022/07/18 13:28:13;;;;;;;3.70;0.90;;;;;;;29.14;35.20;99686.06;106351;1274;22566;-85
2022/07/18 13:30:45;;;;;;;3.30;0.80;;;;;;;29.20;35.18;99685.78;106161;1274;22583;-85
2022/07/18 13:33:12;;;;;;;3.90;0.80;;;;;;;29.15;34.24;99680.98;106470;1274;24263;-84
2022/07/18 13:35:45;;;;;;;5.70;1.10;;;;;;;28.97;34.45;99674.42;106347;1274;22611;-87
2022/07/18 13:38:13;;;;;;;4.90;1.20;;;;;;;28.91;34.43;99677.92;106283;1274;25242;-85
2022/07/18 13:40:43;;;;;;;5.90;1.00;;;;;;;28.91;34.28;99675.02;106209;1274;25434;-85
2022/07/18 13:43:13;;;;;;;4.40;1.10;;;;;;;28.90;34.19;99671.27;106261;1274;22633;-85
2022/07/18 13:45:39;;;;;;;5.10;0.90;;;;;;;28.88;34.24;99674.69;106348;1274;22708;-85
2022/07/18 13:48:08;;;;;;;5.30;1.20;;;;;;;28.91;34.11;99673.79;106301;1273;25228;-84
2022/07/18 13:50:42;;;;;;;2.70;0.70;;;;;;;28.95;34.05;99674.92;106332;1273;26478;-86
2022/07/18 13:53:12;;;;;;;5.50;0.90;;;;;;;29.02;33.72;99674.80;106323;1273;23967;-83
2022/07/18 13:55:43;;;;;;;4.20;1.10;;;;;;;29.05;33.83;99674.27;106356;1274;22835;-84
2022/07/18 13:58:12;;;;;;;3.60;0.90;;;;;;;29.16;34.35;99673.40;106029;1274;25585;-86
2022/07/18 14:00:45;;;;;;;5.60;1.20;;;;;;;29.42;34.45;99669.92;106451;1274;22546;-88
2022/07/18 14:03:16;;;;;;;4.20;1.00;;;;;;;29.64;33.96;99669.48;106256;1275;24313;-85
2022/07/18 14:05:56;;;;;;;4.40;0.80;;;;;;;29.52;33.46;99668.75;106206;1274;24205;-87
2022/07/18 14:08:25;;;;;;;5.70;1.10;;;;;;;29.44;33.66;99667.02;106160;1274;25598;-83